createdAt,value
2019-01-14T00:01:29.578Z,6.30
2019-01-14T00:03:56.989Z,6.30
2019-01-14T00:06:24.407Z,6.40
2019-01-14T00:08:51.860Z,6.40
2019-01-14T00:11:19.396Z,6.40
2019-01-14T00:13:47.057Z,6.50
2019-01-14T00:16:14.650Z,6.50
2019-01-14T00:18:42.319Z,6.60
2019-01-14T00:21:09.720Z,6.70
2019-01-14T00:23:37.178Z,6.70
2019-01-14T00:26:04.851Z,6.70
2019-01-14T00:28:32.777Z,6.70
2019-01-14T00:31:00.198Z,6.70
2019-01-14T00:33:27.494Z,6.70
2019-01-14T00:35:54.867Z,6.70
2019-01-14T00:38:22.176Z,6.60
2019-01-14T00:40:49.929Z,6.60
2019-01-14T00:43:17.387Z,6.50
2019-01-14T00:45:44.831Z,6.40
2019-01-14T00:48:12.614Z,6.30
2019-01-14T00:50:40.068Z,6.20
2019-01-14T00:53:07.527Z,6.10
2019-01-14T00:55:34.817Z,6.10
2019-01-14T00:58:02.138Z,6.10
2019-01-14T01:00:30.408Z,6.10
2019-01-14T01:02:58.299Z,6.10
2019-01-14T01:05:27.227Z,6.10
2019-01-14T01:07:55.277Z,6.10
2019-01-14T01:10:23.066Z,6.20
2019-01-14T01:12:51.010Z,6.20
2019-01-14T01:15:18.227Z,6.20
2019-01-14T01:17:45.847Z,6.20
2019-01-14T01:20:18.698Z,6.20
2019-01-14T01:22:46.517Z,6.30
2019-01-14T01:25:14.166Z,6.30
2019-01-14T01:27:41.608Z,6.30
2019-01-14T01:30:15.350Z,6.30
2019-01-14T01:32:42.747Z,6.30
2019-01-14T01:35:12.848Z,6.30
2019-01-14T01:37:40.218Z,6.30
2019-01-14T01:40:12.592Z,6.30
2019-01-14T01:42:40.028Z,6.30
2019-01-14T01:45:11.172Z,6.10
2019-01-14T01:47:38.687Z,6.10
2019-01-14T01:50:11.100Z,6.00
2019-01-14T01:52:38.587Z,5.80
2019-01-14T01:55:08.647Z,5.80
2019-01-14T01:57:36.018Z,5.70
2019-01-14T02:00:14.019Z,5.70
2019-01-14T02:02:41.398Z,5.70
2019-01-14T02:05:10.947Z,5.70
2019-01-14T02:07:38.877Z,5.60
2019-01-14T02:10:11.500Z,5.60
2019-01-14T02:12:38.909Z,5.50
2019-01-14T02:15:10.707Z,5.50
2019-01-14T02:17:38.067Z,5.50
2019-01-14T02:20:11.186Z,5.40
2019-01-14T02:22:38.779Z,5.40
2019-01-14T02:25:07.659Z,5.20
2019-01-14T02:27:35.077Z,5.20
2019-01-14T02:30:05.370Z,5.10
2019-01-14T02:32:32.650Z,5.10
2019-01-14T02:35:00.206Z,5.00
2019-01-14T02:37:27.839Z,5.00
2019-01-14T02:39:55.218Z,5.00
2019-01-14T02:42:22.799Z,4.90
2019-01-14T02:44:50.377Z,4.90
2019-01-14T02:47:17.746Z,4.90
2019-01-14T02:49:45.149Z,4.90
2019-01-14T02:52:12.599Z,4.90
2019-01-14T02:54:39.949Z,4.80
2019-01-14T02:57:07.412Z,4.80
2019-01-14T02:59:34.798Z,4.80
2019-01-14T03:02:02.347Z,4.80
2019-01-14T03:04:29.578Z,4.80
2019-01-14T03:06:57.939Z,4.80
2019-01-14T03:09:25.537Z,4.70
2019-01-14T03:11:52.922Z,4.70
2019-01-14T03:14:20.306Z,4.60
2019-01-14T03:16:47.847Z,4.60
2019-01-14T03:19:16.442Z,4.60
2019-01-14T03:21:43.554Z,4.70
2019-01-14T03:24:10.909Z,4.70
2019-01-14T03:26:38.118Z,4.70
2019-01-14T03:29:05.402Z,4.70
2019-01-14T03:31:33.364Z,4.70
2019-01-14T03:34:00.971Z,4.70
2019-01-14T03:36:28.436Z,4.70
2019-01-14T03:38:55.867Z,4.80
2019-01-14T03:41:23.268Z,4.80
2019-01-14T03:43:50.529Z,4.80
2019-01-14T03:46:17.768Z,4.80
2019-01-14T03:48:45.658Z,4.80
2019-01-14T03:51:13.268Z,4.70
2019-01-14T03:53:40.848Z,4.70
2019-01-14T03:56:08.828Z,4.70
2019-01-14T03:58:36.159Z,4.70
2019-01-14T04:01:04.026Z,4.70
2019-01-14T04:03:31.397Z,4.70
2019-01-14T04:05:58.997Z,4.80
2019-01-14T04:08:26.487Z,4.80
2019-01-14T04:13:42.868Z,4.90
2019-01-14T04:16:10.237Z,4.90
2019-01-14T04:18:37.567Z,5.00
2019-01-14T04:21:04.802Z,5.00
2019-01-14T04:23:32.186Z,5.00
2019-01-14T04:25:59.588Z,5.10
2019-01-14T04:28:26.878Z,5.10
2019-01-14T04:30:54.118Z,5.10
2019-01-14T04:33:21.759Z,5.20
2019-01-14T04:35:49.349Z,5.10
2019-01-14T04:38:16.669Z,5.20
2019-01-14T04:40:44.448Z,5.20
2019-01-14T04:43:12.849Z,5.20
2019-01-14T04:45:40.301Z,5.20
2019-01-14T04:48:07.757Z,5.20
2019-01-14T04:50:35.148Z,5.20
2019-01-14T04:53:02.552Z,5.20
2019-01-14T04:55:29.877Z,5.20
2019-01-14T04:57:57.248Z,5.20
2019-01-14T05:00:25.146Z,5.20
2019-01-14T05:02:52.766Z,5.20
2019-01-14T05:05:20.610Z,5.20
2019-01-14T05:07:47.796Z,5.20
2019-01-14T05:10:18.338Z,5.20
2019-01-14T05:12:46.257Z,5.20
2019-01-14T05:15:13.958Z,5.20
2019-01-14T05:17:41.527Z,5.20
2019-01-14T05:20:14.269Z,5.10
2019-01-14T05:22:41.547Z,5.10
2019-01-14T05:25:09.417Z,5.10
2019-01-14T05:27:36.918Z,5.00
2019-01-14T05:30:09.707Z,5.00
2019-01-14T05:32:37.038Z,5.00
2019-01-14T05:35:06.957Z,4.90
2019-01-14T05:37:37.751Z,4.90
2019-01-14T05:40:35.429Z,4.90
2019-01-14T05:43:03.459Z,4.90
2019-01-14T05:45:30.897Z,4.90
2019-01-14T05:47:58.489Z,4.90
2019-01-14T05:50:26.358Z,4.90
2019-01-14T05:52:54.047Z,4.90
2019-01-14T05:55:21.489Z,4.90
2019-01-14T05:57:48.959Z,4.90
2019-01-14T06:00:31.168Z,4.80
2019-01-14T06:03:01.161Z,4.80
2019-01-14T06:05:28.487Z,4.80
2019-01-14T06:07:55.958Z,4.70
2019-01-14T06:10:23.297Z,4.70
2019-01-14T06:12:50.658Z,4.70
2019-01-14T06:15:18.947Z,4.70
2019-01-14T06:17:46.268Z,4.70
2019-01-14T06:20:23.877Z,4.80
2019-01-14T06:22:51.123Z,4.80
2019-01-14T06:25:19.728Z,4.70
2019-01-14T06:27:47.389Z,4.80
2019-01-14T06:30:21.766Z,4.80
2019-01-14T06:32:49.108Z,4.80
2019-01-14T06:35:16.788Z,4.80
2019-01-14T06:37:44.256Z,4.80
2019-01-14T06:40:16.937Z,4.80
2019-01-14T06:42:44.799Z,4.70
2019-01-14T06:45:12.908Z,4.70
2019-01-14T06:47:40.356Z,4.70
2019-01-14T06:50:15.141Z,4.70
2019-01-14T06:52:42.588Z,4.80
2019-01-14T06:55:10.427Z,4.70
2019-01-14T06:57:37.786Z,4.70
2019-01-14T07:00:21.842Z,4.70
2019-01-14T07:02:49.858Z,4.70
2019-01-14T07:05:18.786Z,4.60
2019-01-14T07:07:46.230Z,4.60
2019-01-14T07:10:18.860Z,4.60
2019-01-14T07:12:46.167Z,4.60
2019-01-14T07:15:13.870Z,4.60
2019-01-14T07:17:41.188Z,4.50
2019-01-14T07:20:11.787Z,4.50
2019-01-14T07:22:39.069Z,4.50
2019-01-14T07:25:08.516Z,4.50
2019-01-14T07:27:36.057Z,4.40
2019-01-14T07:30:16.998Z,4.40
2019-01-14T07:32:44.807Z,4.40
2019-01-14T07:35:12.710Z,4.30
2019-01-14T07:37:40.657Z,4.30
2019-01-14T07:40:15.166Z,4.30
2019-01-14T07:42:42.766Z,4.20
2019-01-14T07:45:14.016Z,4.20
2019-01-14T07:47:41.588Z,4.10
2019-01-14T07:50:12.911Z,4.10
2019-01-14T07:52:41.077Z,4.10
2019-01-14T07:55:09.057Z,4.10
2019-01-14T07:57:36.507Z,4.10
2019-01-14T08:00:12.298Z,4.00
2019-01-14T08:02:39.759Z,4.10
2019-01-14T08:05:07.247Z,4.10
2019-01-14T08:07:34.616Z,4.20
2019-01-14T08:10:02.945Z,4.30
2019-01-14T08:12:30.676Z,4.50
2019-01-14T08:14:58.048Z,4.50
2019-01-14T08:17:25.646Z,4.60
2019-01-14T08:19:52.879Z,4.70
2019-01-14T08:22:20.179Z,4.80
2019-01-14T08:24:47.549Z,4.80
2019-01-14T08:27:14.947Z,4.90
2019-01-14T08:29:42.318Z,5.00
2019-01-14T08:32:09.657Z,5.10
2019-01-14T08:34:37.057Z,5.20
2019-01-14T08:37:04.456Z,5.30
2019-01-14T08:39:31.748Z,5.40
2019-01-14T08:42:01.227Z,5.50
2019-01-14T08:44:30.367Z,5.60
2019-01-14T08:47:02.848Z,5.80
2019-01-14T08:49:30.186Z,5.90
2019-01-14T08:51:57.547Z,5.80
2019-01-14T08:54:24.797Z,5.80
2019-01-14T08:56:52.137Z,5.70
2019-01-14T08:59:19.421Z,5.70
2019-01-14T09:01:46.777Z,5.70
2019-01-14T09:04:14.127Z,5.70
2019-01-14T09:06:41.618Z,5.70
2019-01-14T09:09:09.427Z,5.70
2019-01-14T09:11:36.836Z,5.70
2019-01-14T09:14:04.547Z,5.70
2019-01-14T09:16:32.032Z,5.80
2019-01-14T09:19:00.598Z,5.80
2019-01-14T09:21:27.868Z,5.80
2019-01-14T09:23:55.356Z,5.80
2019-01-14T09:26:22.719Z,5.80
2019-01-14T09:28:51.006Z,5.70
2019-01-14T09:31:19.528Z,5.70
2019-01-14T09:33:46.999Z,5.60
2019-01-14T09:36:14.408Z,5.70
2019-01-14T09:38:41.947Z,5.70
2019-01-14T09:41:09.599Z,5.80
2019-01-14T09:43:36.906Z,6.00
2019-01-14T09:46:04.316Z,6.10
2019-01-14T09:48:31.645Z,6.00
2019-01-14T09:50:59.528Z,6.00
2019-01-14T09:53:27.647Z,5.90
2019-01-14T09:55:55.027Z,5.80
2019-01-14T09:58:22.306Z,5.80
2019-01-14T10:00:49.708Z,5.70
2019-01-14T10:03:17.057Z,5.70
2019-01-14T10:05:44.690Z,5.70
2019-01-14T10:08:12.512Z,5.70
2019-01-14T10:10:39.958Z,5.80
2019-01-14T10:13:07.517Z,5.80
2019-01-14T10:15:34.919Z,5.80
2019-01-14T10:18:02.949Z,5.70
2019-01-14T10:20:30.401Z,5.70
2019-01-14T10:22:57.776Z,5.70
2019-01-14T10:25:25.276Z,5.60
2019-01-14T10:27:52.578Z,5.60
2019-01-14T10:30:20.147Z,5.60
2019-01-14T10:32:47.638Z,5.60
2019-01-14T10:35:15.657Z,5.60
2019-01-14T10:37:43.438Z,5.70
2019-01-14T10:40:15.869Z,5.70
2019-01-14T10:42:43.848Z,5.70
2019-01-14T10:45:18.359Z,5.70
2019-01-14T10:47:46.288Z,5.60
2019-01-14T10:50:13.937Z,5.60
2019-01-14T10:52:41.588Z,5.60
2019-01-14T10:55:12.510Z,5.50
2019-01-14T10:57:39.898Z,5.50
2019-01-14T11:00:20.229Z,5.40
2019-01-14T11:02:48.321Z,5.40
2019-01-14T11:05:24.481Z,5.50
2019-01-14T11:07:51.808Z,5.50
2019-01-14T11:10:19.097Z,5.40
2019-01-14T11:12:46.407Z,5.40
2019-01-14T11:15:17.166Z,5.40
2019-01-14T11:17:44.727Z,5.40
2019-01-14T11:20:16.157Z,5.50
2019-01-14T11:22:43.490Z,5.50
2019-01-14T11:25:11.611Z,5.50
2019-01-14T11:27:38.898Z,5.60
2019-01-14T11:30:14.236Z,5.70
2019-01-14T11:32:41.687Z,5.70
2019-01-14T11:35:09.338Z,5.70
2019-01-14T11:37:36.688Z,5.70
2019-01-14T11:40:18.062Z,5.60
2019-01-14T11:42:45.498Z,5.60
2019-01-14T11:45:14.296Z,5.60
2019-01-14T11:47:41.787Z,5.60
2019-01-14T11:50:13.566Z,5.50
2019-01-14T11:52:41.197Z,5.50
2019-01-14T11:55:09.107Z,5.50
2019-01-14T11:57:36.347Z,5.50
2019-01-14T12:00:15.068Z,5.50
2019-01-14T12:02:42.491Z,5.50
2019-01-14T12:05:10.397Z,5.50
2019-01-14T12:07:37.787Z,5.60
2019-01-14T12:10:08.787Z,5.50
2019-01-14T12:12:36.238Z,5.50
2019-01-14T12:15:12.217Z,5.40
2019-01-14T12:17:39.400Z,5.40
2019-01-14T12:20:11.800Z,5.50
2019-01-14T12:22:39.859Z,5.60
2019-01-14T12:25:08.977Z,5.50
2019-01-14T12:27:36.508Z,5.50
2019-01-14T12:30:15.513Z,5.50
2019-01-14T12:32:42.857Z,5.50
2019-01-14T12:35:10.228Z,5.50
2019-01-14T12:37:37.998Z,5.50
2019-01-14T12:40:10.197Z,5.50
2019-01-14T12:42:37.896Z,5.50
2019-01-14T12:45:09.818Z,5.60
2019-01-14T12:47:37.119Z,5.60
2019-01-14T12:50:09.478Z,5.60
2019-01-14T12:52:37.108Z,5.70
2019-01-14T12:55:08.097Z,5.70
2019-01-14T12:57:35.518Z,5.70
2019-01-14T13:00:11.177Z,5.70
2019-01-14T13:02:38.507Z,5.70
2019-01-14T13:05:08.349Z,5.70
2019-01-14T13:07:35.917Z,5.70
2019-01-14T13:10:07.868Z,5.70
2019-01-14T13:12:35.516Z,5.80
2019-01-14T13:15:05.947Z,5.70
2019-01-14T13:17:33.319Z,5.70
2019-01-14T13:20:00.567Z,5.60
2019-01-14T13:22:28.137Z,5.60
2019-01-14T13:24:55.136Z,5.60
2019-01-14T13:27:22.690Z,5.50
2019-01-14T13:29:50.068Z,5.50
2019-01-14T13:32:17.461Z,5.40
2019-01-14T13:34:44.991Z,5.30
2019-01-14T13:37:12.367Z,5.30
2019-01-14T13:39:39.588Z,5.30
2019-01-14T13:42:07.099Z,5.20
2019-01-14T13:44:34.460Z,5.10
2019-01-14T13:47:01.917Z,5.00
2019-01-14T13:49:29.207Z,5.00
2019-01-14T13:51:56.758Z,4.90
2019-01-14T13:54:24.457Z,4.90
2019-01-14T13:56:51.857Z,4.90
2019-01-14T13:59:19.257Z,4.90
2019-01-14T14:01:46.861Z,4.90
2019-01-14T14:04:14.499Z,4.90
2019-01-14T14:06:42.848Z,4.80
2019-01-14T14:09:09.981Z,4.80
2019-01-14T14:11:37.327Z,4.70
2019-01-14T14:14:04.716Z,4.70
2019-01-14T14:16:32.107Z,4.60
2019-01-14T14:18:59.550Z,4.60
2019-01-14T14:21:27.281Z,4.50
2019-01-14T14:23:54.937Z,4.50
2019-01-14T14:26:22.137Z,4.50
2019-01-14T14:28:49.538Z,4.50
2019-01-14T14:31:17.317Z,4.40
2019-01-14T14:33:44.529Z,4.30
2019-01-14T14:36:11.858Z,4.20
2019-01-14T14:38:39.069Z,4.20
2019-01-14T14:41:06.483Z,4.20
2019-01-14T14:43:33.801Z,4.00
2019-01-14T14:46:00.950Z,3.90
2019-01-14T14:48:28.166Z,3.70
2019-01-14T14:50:55.848Z,3.60
2019-01-14T14:53:23.157Z,3.60
2019-01-14T14:55:50.738Z,3.50
2019-01-14T14:58:18.017Z,3.50
2019-01-14T15:00:45.527Z,3.40
2019-01-14T15:03:12.827Z,3.30
2019-01-14T15:05:40.259Z,3.30
2019-01-14T15:08:08.080Z,3.20
2019-01-14T15:10:35.307Z,3.20
2019-01-14T15:13:02.720Z,3.10
2019-01-14T15:15:30.308Z,3.10
2019-01-14T15:17:57.938Z,3.00
2019-01-14T15:20:25.519Z,3.00
2019-01-14T15:22:53.027Z,3.00
2019-01-14T15:25:20.400Z,2.90
2019-01-14T15:27:47.737Z,2.80
2019-01-14T15:30:20.328Z,2.80
2019-01-14T15:32:47.568Z,2.80
2019-01-14T15:35:14.879Z,2.80
2019-01-14T15:37:42.247Z,2.70
2019-01-14T15:40:14.547Z,2.70
2019-01-14T15:42:41.882Z,2.70
2019-01-14T15:45:14.052Z,2.60
2019-01-14T15:47:42.189Z,2.60
2019-01-14T15:50:10.527Z,2.60
2019-01-14T15:52:38.219Z,2.60
2019-01-14T15:55:16.733Z,2.60
2019-01-14T15:57:44.539Z,2.60
2019-01-14T16:00:17.919Z,2.60
2019-01-14T16:02:46.237Z,2.60
2019-01-14T16:05:15.960Z,2.70
2019-01-14T16:07:43.609Z,2.70
2019-01-14T16:10:15.127Z,2.80
2019-01-14T16:12:42.229Z,2.80
2019-01-14T16:15:09.788Z,2.80
2019-01-14T16:17:37.417Z,2.90
2019-01-14T16:20:10.067Z,2.80
2019-01-14T16:22:37.558Z,2.70
2019-01-14T16:25:06.047Z,2.60
2019-01-14T16:27:33.348Z,2.60
2019-01-14T16:30:00.647Z,2.60
2019-01-14T16:32:28.049Z,2.60
2019-01-14T16:34:55.389Z,2.50
2019-01-14T16:37:22.858Z,2.40
2019-01-14T16:39:50.349Z,2.30
2019-01-14T16:42:17.897Z,2.20
2019-01-14T16:44:45.338Z,2.10
2019-01-14T16:47:13.177Z,2.20
2019-01-14T16:49:40.577Z,2.20
2019-01-14T16:52:07.930Z,2.30
2019-01-14T16:54:35.217Z,2.40
2019-01-14T16:57:02.537Z,2.40
2019-01-14T16:59:30.087Z,2.40
2019-01-14T17:01:57.687Z,2.40
2019-01-14T17:04:25.119Z,2.50
2019-01-14T17:06:52.388Z,2.50
2019-01-14T17:09:19.745Z,2.60
2019-01-14T17:11:47.279Z,2.60
2019-01-14T17:14:14.518Z,2.60
2019-01-14T17:16:41.609Z,2.60
2019-01-14T17:19:09.157Z,2.60
2019-01-14T17:21:36.836Z,2.60
2019-01-14T17:24:04.917Z,2.50
2019-01-14T17:26:32.618Z,2.40
2019-01-14T17:28:59.957Z,2.30
2019-01-14T17:31:27.857Z,2.10
2019-01-14T17:33:55.468Z,2.10
2019-01-14T17:36:22.798Z,2.00
2019-01-14T17:38:51.130Z,2.00
2019-01-14T17:41:18.837Z,2.00
2019-01-14T17:43:46.330Z,2.00
2019-01-14T17:46:13.898Z,2.10
2019-01-14T17:48:41.387Z,2.10
2019-01-14T17:51:08.768Z,2.20
2019-01-14T17:53:36.228Z,2.20
2019-01-14T17:56:03.927Z,2.10
2019-01-14T17:58:31.296Z,2.10
2019-01-14T18:00:58.947Z,2.00
2019-01-14T18:03:26.327Z,2.00
2019-01-14T18:05:53.699Z,1.90
2019-01-14T18:08:21.211Z,1.90
2019-01-14T18:10:48.600Z,1.80
2019-01-14T18:13:16.038Z,1.80
2019-01-14T18:15:43.496Z,1.70
2019-01-14T18:18:10.996Z,1.70
2019-01-14T18:20:38.517Z,1.70
2019-01-14T18:23:06.489Z,1.70
2019-01-14T18:25:34.026Z,1.70
2019-01-14T18:28:01.387Z,1.60
2019-01-14T18:30:28.827Z,1.60
2019-01-14T18:32:56.448Z,1.70
2019-01-14T18:35:24.058Z,1.70
2019-01-14T18:37:51.629Z,1.60
2019-01-14T18:40:19.213Z,1.60
2019-01-14T18:42:46.728Z,1.60
2019-01-14T18:45:16.887Z,1.50
2019-01-14T18:47:44.557Z,1.40
2019-01-14T18:50:15.197Z,1.40
2019-01-14T18:52:43.068Z,1.30
2019-01-14T18:55:10.427Z,1.30
2019-01-14T18:57:38.291Z,1.30
2019-01-14T19:00:16.008Z,1.30
2019-01-14T19:02:43.498Z,1.30
2019-01-14T19:05:11.006Z,1.30
2019-01-14T19:07:38.906Z,1.40
2019-01-14T19:10:09.970Z,1.50
2019-01-14T19:12:37.277Z,1.50
2019-01-14T19:15:17.206Z,1.60
2019-01-14T19:17:44.897Z,1.60
2019-01-14T19:20:17.007Z,1.70
2019-01-14T19:22:44.606Z,1.80
2019-01-14T19:25:13.149Z,1.80
2019-01-14T19:27:40.917Z,1.90
2019-01-14T19:30:13.190Z,1.90
2019-01-14T19:32:40.577Z,2.00
2019-01-14T19:35:08.553Z,2.10
2019-01-14T19:37:35.978Z,2.10
2019-01-14T19:40:29.468Z,2.10
2019-01-14T19:42:57.350Z,2.10
2019-01-14T19:45:24.724Z,2.20
2019-01-14T19:47:52.158Z,2.20
2019-01-14T19:50:21.506Z,2.20
2019-01-14T19:52:48.977Z,2.20
2019-01-14T19:55:16.247Z,2.10
2019-01-14T19:57:44.279Z,2.00
2019-01-14T20:00:24.148Z,1.80
2019-01-14T20:02:51.596Z,1.60
2019-01-14T20:05:19.148Z,1.60
2019-01-14T20:07:47.536Z,1.60
2019-01-14T20:10:14.941Z,1.40
2019-01-14T20:12:42.337Z,1.40
2019-01-14T20:15:14.678Z,1.30
2019-01-14T20:17:42.158Z,1.20
2019-01-14T20:20:10.640Z,1.20
2019-01-14T20:22:38.037Z,1.10
2019-01-14T20:25:10.331Z,1.10
2019-01-14T20:27:37.917Z,1.00
2019-01-14T20:30:16.097Z,1.00
2019-01-14T20:32:43.977Z,0.90
2019-01-14T20:35:11.858Z,0.90
2019-01-14T20:37:39.298Z,0.90
2019-01-14T20:40:11.340Z,0.90
2019-01-14T20:42:38.697Z,0.90
2019-01-14T20:45:10.306Z,0.90
2019-01-14T20:47:37.780Z,0.80
2019-01-14T20:50:09.417Z,0.80
2019-01-14T20:52:38.976Z,0.80
2019-01-14T20:55:08.909Z,0.70
2019-01-14T20:57:37.110Z,0.70
2019-01-14T21:00:10.538Z,0.70
2019-01-14T21:02:37.968Z,0.70
2019-01-14T21:05:07.420Z,0.60
2019-01-14T21:07:35.127Z,0.60
2019-01-14T21:10:04.493Z,0.50
2019-01-14T21:12:32.058Z,0.60
2019-01-14T21:17:27.519Z,0.50
2019-01-14T21:19:55.161Z,0.60
2019-01-14T21:22:22.709Z,0.50
2019-01-14T21:24:50.260Z,0.60
2019-01-14T21:27:17.948Z,0.50
2019-01-14T21:29:45.418Z,0.50
2019-01-14T21:32:12.967Z,0.50
2019-01-14T21:34:40.607Z,0.40
2019-01-14T21:37:07.839Z,0.40
2019-01-14T21:39:35.478Z,0.40
2019-01-14T21:42:03.208Z,0.40
2019-01-14T21:44:30.858Z,0.40
2019-01-14T21:46:58.550Z,0.40
2019-01-14T21:49:25.919Z,0.40
2019-01-14T21:51:53.660Z,0.30
2019-01-14T21:54:21.210Z,0.20
2019-01-14T21:56:48.801Z,0.20
2019-01-14T21:59:16.499Z,0.20
2019-01-14T22:01:43.967Z,0.30
2019-01-14T22:04:11.558Z,0.20
2019-01-14T22:06:38.999Z,0.20
2019-01-14T22:09:07.218Z,0.30
2019-01-14T22:11:38.495Z,0.40
2019-01-14T22:14:04.168Z,0.20
2019-01-14T22:16:32.067Z,0.20
2019-01-14T22:18:59.549Z,0.20
2019-01-14T22:21:27.198Z,0.10
2019-01-14T22:23:54.909Z,0.00
2019-01-14T22:26:22.299Z,0.10
2019-01-14T22:28:49.800Z,0.20
2019-01-14T22:31:17.318Z,0.10
2019-01-14T22:33:44.767Z,0.20
2019-01-14T22:36:12.238Z,0.40
2019-01-14T22:38:40.589Z,0.40
2019-01-14T22:41:08.098Z,0.40
2019-01-14T22:43:35.458Z,0.30
2019-01-14T22:46:03.008Z,0.30
2019-01-14T22:48:30.478Z,0.40
2019-01-14T22:50:57.998Z,0.40
2019-01-14T22:53:25.620Z,0.50
2019-01-14T22:55:52.900Z,0.50
2019-01-14T22:58:20.090Z,0.50
2019-01-14T23:01:06.698Z,0.40
2019-01-14T23:03:34.327Z,0.40
2019-01-14T23:06:01.508Z,0.30
2019-01-14T23:08:29.387Z,0.40
2019-01-14T23:10:56.828Z,0.30
2019-01-14T23:13:24.318Z,0.20
2019-01-14T23:15:51.658Z,0.20
2019-01-14T23:18:18.859Z,0.10
2019-01-14T23:20:46.180Z,0.10
2019-01-14T23:23:13.680Z,0.10
2019-01-14T23:25:40.940Z,0.00
2019-01-14T23:28:08.273Z,0.00
2019-01-14T23:30:35.619Z,0.10
2019-01-14T23:33:03.338Z,0.10
2019-01-14T23:35:30.867Z,0.10
2019-01-14T23:37:58.250Z,0.00
2019-01-14T23:40:25.600Z,0.10
2019-01-14T23:42:53.110Z,0.00
2019-01-14T23:45:20.338Z,0.00
2019-01-14T23:48:07.359Z,0.00
2019-01-14T23:50:34.897Z,0.10
2019-01-14T23:53:02.277Z,0.00
2019-01-14T23:55:29.419Z,0.10
2019-01-14T23:57:56.887Z,0.20
